sensor_id;sensor_type;location;lat;lon;timestamp;P1;durP1;ratioP1;P2;durP2;ratioP2
68384;SDS011;55336;43.062;25.626;2022-09-03T00:00:19;0.65;;;0.63;;
68384;SDS011;55336;43.062;25.626;2022-09-03T00:08:20;0.30;;;0.30;;
68384;SDS011;55336;43.062;25.626;2022-09-03T00:13:47;0.20;;;0.20;;
68384;SDS011;55336;43.062;25.626;2022-09-03T00:16:20;0.30;;;0.30;;
68384;SDS011;55336;43.062;25.626;2022-09-03T00:18:55;0.32;;;0.20;;
68384;SDS011;55336;43.062;25.626;2022-09-03T00:21:44;0.35;;;0.25;;
68384;SDS011;55336;43.062;25.626;2022-09-03T00:24:12;0.40;;;0.28;;
68384;SDS011;55336;43.062;25.626;2022-09-03T00:26:42;0.10;;;0.10;;
68384;SDS011;55336;43.062;25.626;2022-09-03T00:29:15;0.20;;;0.20;;
68384;SDS011;55336;43.062;25.626;2022-09-03T00:31:45;0.00;;;0.00;;
68384;SDS011;55336;43.062;25.626;2022-09-03T00:34:51;0.10;;;0.10;;
68384;SDS011;55336;43.062;25.626;2022-09-03T00:37:15;0.10;;;0.10;;
68384;SDS011;55336;43.062;25.626;2022-09-03T00:47:29;0.25;;;0.22;;
68384;SDS011;55336;43.062;25.626;2022-09-03T00:55:47;0.00;;;0.00;;
68384;SDS011;55336;43.062;25.626;2022-09-03T01:01:17;0.00;;;0.00;;
68384;SDS011;55336;43.062;25.626;2022-09-03T01:04:05;0.00;;;0.00;;
68384;SDS011;55336;43.062;25.626;2022-09-03T01:12:32;0.00;;;0.00;;
68384;SDS011;55336;43.062;25.626;2022-09-03T01:15:28;0.00;;;0.00;;
68384;SDS011;55336;43.062;25.626;2022-09-03T01:21:08;0.00;;;0.00;;
68384;SDS011;55336;43.062;25.626;2022-09-03T01:43:21;0.35;;;0.35;;
68384;SDS011;55336;43.062;25.626;2022-09-03T01:45:55;0.20;;;0.20;;
68384;SDS011;55336;43.062;25.626;2022-09-03T01:48:39;0.38;;;0.25;;
68384;SDS011;55336;43.062;25.626;2022-09-03T02:02:20;0.17;;;0.17;;
68384;SDS011;55336;43.062;25.626;2022-09-03T02:04:56;0.15;;;0.10;;
68384;SDS011;55336;43.062;25.626;2022-09-03T02:07:39;0.15;;;0.15;;
68384;SDS011;55336;43.062;25.626;2022-09-03T02:10:12;0.20;;;0.20;;
68384;SDS011;55336;43.062;25.626;2022-09-03T02:12:39;0.20;;;0.20;;
68384;SDS011;55336;43.062;25.626;2022-09-03T02:15:13;0.30;;;0.30;;
68384;SDS011;55336;43.062;25.626;2022-09-03T02:17:41;0.20;;;0.20;;
68384;SDS011;55336;43.062;25.626;2022-09-03T02:20:11;0.10;;;0.10;;
68384;SDS011;55336;43.062;25.626;2022-09-03T02:22:44;0.47;;;0.25;;
68384;SDS011;55336;43.062;25.626;2022-09-03T02:25:11;0.20;;;0.20;;
68384;SDS011;55336;43.062;25.626;2022-09-03T02:27:38;1.10;;;0.40;;
68384;SDS011;55336;43.062;25.626;2022-09-03T02:30:04;0.52;;;0.30;;
68384;SDS011;55336;43.062;25.626;2022-09-03T02:32:31;0.20;;;0.20;;
68384;SDS011;55336;43.062;25.626;2022-09-03T02:34:57;0.32;;;0.30;;
68384;SDS011;55336;43.062;25.626;2022-09-03T02:37:23;0.40;;;0.40;;
68384;SDS011;55336;43.062;25.626;2022-09-03T02:39:50;0.45;;;0.45;;
68384;SDS011;55336;43.062;25.626;2022-09-03T02:47:38;0.20;;;0.20;;
68384;SDS011;55336;43.062;25.626;2022-09-03T02:50:08;0.70;;;0.52;;
68384;SDS011;55336;43.062;25.626;2022-09-03T02:52:34;0.20;;;0.20;;
68384;SDS011;55336;43.062;25.626;2022-09-03T02:55:00;0.47;;;0.35;;
68384;SDS011;55336;43.062;25.626;2022-09-03T02:59:53;0.45;;;0.43;;
68384;SDS011;55336;43.062;25.626;2022-09-03T03:02:18;0.52;;;0.52;;
68384;SDS011;55336;43.062;25.626;2022-09-03T03:07:10;0.10;;;0.10;;
68384;SDS011;55336;43.062;25.626;2022-09-03T03:12:01;0.15;;;0.13;;
68384;SDS011;55336;43.062;25.626;2022-09-03T03:14:28;0.20;;;0.20;;
68384;SDS011;55336;43.062;25.626;2022-09-03T03:16:53;0.57;;;0.40;;
68384;SDS011;55336;43.062;25.626;2022-09-03T03:21:45;0.20;;;0.20;;
68384;SDS011;55336;43.062;25.626;2022-09-03T03:26:37;0.10;;;0.10;;
68384;SDS011;55336;43.062;25.626;2022-09-03T03:31:29;0.08;;;0.08;;
68384;SDS011;55336;43.062;25.626;2022-09-03T03:33:56;0.05;;;0.05;;
68384;SDS011;55336;43.062;25.626;2022-09-03T03:36:25;0.20;;;0.20;;
68384;SDS011;55336;43.062;25.626;2022-09-03T03:38:53;0.20;;;0.20;;
68384;SDS011;55336;43.062;25.626;2022-09-03T03:41:21;0.28;;;0.28;;
68384;SDS011;55336;43.062;25.626;2022-09-03T03:43:52;0.32;;;0.22;;
68384;SDS011;55336;43.062;25.626;2022-09-03T03:46:20;0.40;;;0.40;;
68384;SDS011;55336;43.062;25.626;2022-09-03T03:48:47;0.20;;;0.20;;
68384;SDS011;55336;43.062;25.626;2022-09-03T03:51:14;0.20;;;0.20;;
68384;SDS011;55336;43.062;25.626;2022-09-03T03:53:40;0.13;;;0.13;;
68384;SDS011;55336;43.062;25.626;2022-09-03T03:56:07;0.20;;;0.20;;
68384;SDS011;55336;43.062;25.626;2022-09-03T03:58:36;0.20;;;0.20;;
68384;SDS011;55336;43.062;25.626;2022-09-03T04:01:04;0.20;;;0.20;;
68384;SDS011;55336;43.062;25.626;2022-09-03T04:03:31;0.32;;;0.32;;
68384;SDS011;55336;43.062;25.626;2022-09-03T04:05:58;0.17;;;0.13;;
68384;SDS011;55336;43.062;25.626;2022-09-03T04:08:28;0.10;;;0.10;;
68384;SDS011;55336;43.062;25.626;2022-09-03T04:10:57;1.10;;;0.55;;
68384;SDS011;55336;43.062;25.626;2022-09-03T04:13:28;0.10;;;0.10;;
68384;SDS011;55336;43.062;25.626;2022-09-03T04:16:00;0.20;;;0.20;;
68384;SDS011;55336;43.062;25.626;2022-09-03T04:18:30;0.13;;;0.13;;
68384;SDS011;55336;43.062;25.626;2022-09-03T04:21:00;0.90;;;0.40;;
68384;SDS011;55336;43.062;25.626;2022-09-03T04:23:31;0.73;;;0.52;;
68384;SDS011;55336;43.062;25.626;2022-09-03T04:25:59;0.08;;;0.08;;
68384;SDS011;55336;43.062;25.626;2022-09-03T04:30:52;0.00;;;0.00;;
68384;SDS011;55336;43.062;25.626;2022-09-03T04:33:18;0.10;;;0.10;;
68384;SDS011;55336;43.062;25.626;2022-09-03T04:35:44;0.20;;;0.20;;
68384;SDS011;55336;43.062;25.626;2022-09-03T04:38:10;0.40;;;0.40;;
68384;SDS011;55336;43.062;25.626;2022-09-03T04:40:36;0.63;;;0.63;;
68384;SDS011;55336;43.062;25.626;2022-09-03T04:43:02;0.30;;;0.30;;
68384;SDS011;55336;43.062;25.626;2022-09-03T04:45:28;1.02;;;0.80;;
68384;SDS011;55336;43.062;25.626;2022-09-03T04:47:58;0.20;;;0.20;;
68384;SDS011;55336;43.062;25.626;2022-09-03T04:50:24;0.10;;;0.10;;
68384;SDS011;55336;43.062;25.626;2022-09-03T04:52:52;0.65;;;0.30;;
68384;SDS011;55336;43.062;25.626;2022-09-03T04:55:25;0.25;;;0.25;;
68384;SDS011;55336;43.062;25.626;2022-09-03T04:57:50;0.38;;;0.38;;
68384;SDS011;55336;43.062;25.626;2022-09-03T05:02:46;0.40;;;0.40;;
68384;SDS011;55336;43.062;25.626;2022-09-03T05:05:13;1.13;;;0.73;;
68384;SDS011;55336;43.062;25.626;2022-09-03T05:07:39;0.32;;;0.32;;
68384;SDS011;55336;43.062;25.626;2022-09-03T05:10:06;0.40;;;0.40;;
68384;SDS011;55336;43.062;25.626;2022-09-03T05:12:33;0.55;;;0.40;;
68384;SDS011;55336;43.062;25.626;2022-09-03T05:14:59;0.30;;;0.30;;
68384;SDS011;55336;43.062;25.626;2022-09-03T05:17:25;0.50;;;0.50;;
68384;SDS011;55336;43.062;25.626;2022-09-03T05:19:51;0.57;;;0.40;;
68384;SDS011;55336;43.062;25.626;2022-09-03T05:24:45;0.80;;;0.80;;
68384;SDS011;55336;43.062;25.626;2022-09-03T05:27:13;0.57;;;0.57;;
68384;SDS011;55336;43.062;25.626;2022-09-03T05:29:44;0.77;;;0.52;;
68384;SDS011;55336;43.062;25.626;2022-09-03T05:32:10;0.70;;;0.70;;
68384;SDS011;55336;43.062;25.626;2022-09-03T05:34:37;0.82;;;0.65;;
68384;SDS011;55336;43.062;25.626;2022-09-03T05:37:03;0.68;;;0.68;;
68384;SDS011;55336;43.062;25.626;2022-09-03T05:39:29;0.68;;;0.68;;
68384;SDS011;55336;43.062;25.626;2022-09-03T05:41:55;1.10;;;1.00;;
68384;SDS011;55336;43.062;25.626;2022-09-03T05:44:21;1.92;;;1.00;;
68384;SDS011;55336;43.062;25.626;2022-09-03T05:46:47;0.70;;;0.70;;
68384;SDS011;55336;43.062;25.626;2022-09-03T05:49:15;0.80;;;0.80;;
68384;SDS011;55336;43.062;25.626;2022-09-03T05:51:42;0.55;;;0.55;;
68384;SDS011;55336;43.062;25.626;2022-09-03T05:54:09;0.85;;;0.85;;
68384;SDS011;55336;43.062;25.626;2022-09-03T05:56:36;0.75;;;0.75;;
68384;SDS011;55336;43.062;25.626;2022-09-03T05:59:04;0.80;;;0.80;;
68384;SDS011;55336;43.062;25.626;2022-09-03T06:01:34;0.73;;;0.73;;
68384;SDS011;55336;43.062;25.626;2022-09-03T06:04:05;0.93;;;0.77;;
68384;SDS011;55336;43.062;25.626;2022-09-03T06:06:33;0.68;;;0.68;;
68384;SDS011;55336;43.062;25.626;2022-09-03T06:09:02;1.38;;;1.00;;
68384;SDS011;55336;43.062;25.626;2022-09-03T06:11:30;1.17;;;1.08;;
68384;SDS011;55336;43.062;25.626;2022-09-03T06:13:58;0.70;;;0.70;;
68384;SDS011;55336;43.062;25.626;2022-09-03T06:16:30;1.15;;;1.05;;
68384;SDS011;55336;43.062;25.626;2022-09-03T06:18:57;0.60;;;0.60;;
68384;SDS011;55336;43.062;25.626;2022-09-03T06:21:23;1.15;;;0.90;;
68384;SDS011;55336;43.062;25.626;2022-09-03T06:23:50;1.40;;;1.30;;
68384;SDS011;55336;43.062;25.626;2022-09-03T06:26:17;1.25;;;1.23;;
68384;SDS011;55336;43.062;25.626;2022-09-03T06:28:43;1.50;;;1.42;;
68384;SDS011;55336;43.062;25.626;2022-09-03T06:31:11;1.10;;;1.10;;
68384;SDS011;55336;43.062;25.626;2022-09-03T06:33:38;1.83;;;1.73;;
68384;SDS011;55336;43.062;25.626;2022-09-03T06:36:05;2.08;;;1.98;;
68384;SDS011;55336;43.062;25.626;2022-09-03T06:38:33;2.03;;;1.80;;
68384;SDS011;55336;43.062;25.626;2022-09-03T06:41:00;2.28;;;2.08;;
68384;SDS011;55336;43.062;25.626;2022-09-03T06:43:28;2.08;;;1.98;;
68384;SDS011;55336;43.062;25.626;2022-09-03T06:45:56;2.28;;;1.92;;
68384;SDS011;55336;43.062;25.626;2022-09-03T06:48:24;5.40;;;2.30;;
68384;SDS011;55336;43.062;25.626;2022-09-03T06:53:25;2.15;;;2.00;;
68384;SDS011;55336;43.062;25.626;2022-09-03T06:55:53;1.63;;;1.52;;
68384;SDS011;55336;43.062;25.626;2022-09-03T06:58:20;5.38;;;2.22;;
68384;SDS011;55336;43.062;25.626;2022-09-03T07:00:47;2.45;;;2.28;;
68384;SDS011;55336;43.062;25.626;2022-09-03T07:03:14;2.03;;;1.92;;
68384;SDS011;55336;43.062;25.626;2022-09-03T07:05:42;2.03;;;1.92;;
68384;SDS011;55336;43.062;25.626;2022-09-03T07:08:09;2.47;;;2.25;;
68384;SDS011;55336;43.062;25.626;2022-09-03T07:10:35;2.92;;;2.72;;
68384;SDS011;55336;43.062;25.626;2022-09-03T07:13:02;3.33;;;3.03;;
68384;SDS011;55336;43.062;25.626;2022-09-03T07:15:31;3.00;;;2.78;;
68384;SDS011;55336;43.062;25.626;2022-09-03T07:17:57;1.98;;;1.88;;
68384;SDS011;55336;43.062;25.626;2022-09-03T07:20:23;2.85;;;2.17;;
68384;SDS011;55336;43.062;25.626;2022-09-03T07:22:49;2.42;;;2.22;;
68384;SDS011;55336;43.062;25.626;2022-09-03T07:25:18;2.92;;;2.60;;
68384;SDS011;55336;43.062;25.626;2022-09-03T07:27:44;2.20;;;2.08;;
68384;SDS011;55336;43.062;25.626;2022-09-03T07:30:11;2.42;;;2.22;;
68384;SDS011;55336;43.062;25.626;2022-09-03T07:35:05;2.70;;;2.45;;
68384;SDS011;55336;43.062;25.626;2022-09-03T07:37:31;2.55;;;2.35;;
68384;SDS011;55336;43.062;25.626;2022-09-03T07:39:57;2.38;;;2.17;;
68384;SDS011;55336;43.062;25.626;2022-09-03T07:44:51;2.53;;;2.33;;
68384;SDS011;55336;43.062;25.626;2022-09-03T07:47:17;2.97;;;2.75;;
68384;SDS011;55336;43.062;25.626;2022-09-03T07:49:44;3.78;;;2.65;;
68384;SDS011;55336;43.062;25.626;2022-09-03T07:52:11;1.98;;;1.88;;
68384;SDS011;55336;43.062;25.626;2022-09-03T07:54:36;2.42;;;2.22;;
68384;SDS011;55336;43.062;25.626;2022-09-03T07:57:02;2.33;;;2.13;;
68384;SDS011;55336;43.062;25.626;2022-09-03T07:59:29;2.20;;;1.73;;
68384;SDS011;55336;43.062;25.626;2022-09-03T08:01:55;2.75;;;1.85;;
68384;SDS011;55336;43.062;25.626;2022-09-03T08:04:21;1.98;;;1.83;;
68384;SDS011;55336;43.062;25.626;2022-09-03T08:09:13;1.75;;;1.65;;
68384;SDS011;55336;43.062;25.626;2022-09-03T08:11:40;1.77;;;1.67;;
68384;SDS011;55336;43.062;25.626;2022-09-03T08:14:08;2.55;;;2.35;;
68384;SDS011;55336;43.062;25.626;2022-09-03T08:16:36;2.53;;;2.33;;
68384;SDS011;55336;43.062;25.626;2022-09-03T08:19:07;1.60;;;1.50;;
68384;SDS011;55336;43.062;25.626;2022-09-03T08:21:35;2.45;;;2.25;;
68384;SDS011;55336;43.062;25.626;2022-09-03T08:26:31;2.08;;;1.98;;
68384;SDS011;55336;43.062;25.626;2022-09-03T08:29:01;1.85;;;1.75;;
68384;SDS011;55336;43.062;25.626;2022-09-03T08:31:28;2.65;;;2.45;;
68384;SDS011;55336;43.062;25.626;2022-09-03T08:33:55;2.38;;;2.17;;
68384;SDS011;55336;43.062;25.626;2022-09-03T08:36:29;2.20;;;1.65;;
68384;SDS011;55336;43.062;25.626;2022-09-03T08:38:56;1.85;;;1.75;;
68384;SDS011;55336;43.062;25.626;2022-09-03T08:49:51;1.67;;;1.58;;
68384;SDS011;55336;43.062;25.626;2022-09-03T08:55:22;2.25;;;2.05;;
68384;SDS011;55336;43.062;25.626;2022-09-03T08:57:56;1.67;;;1.58;;
68384;SDS011;55336;43.062;25.626;2022-09-03T09:00:34;1.85;;;1.75;;
68384;SDS011;55336;43.062;25.626;2022-09-03T09:20:20;2.05;;;1.85;;
68384;SDS011;55336;43.062;25.626;2022-09-03T09:23:02;1.73;;;1.60;;
68384;SDS011;55336;43.062;25.626;2022-09-03T09:25:33;9.50;;;1.70;;
68384;SDS011;55336;43.062;25.626;2022-09-03T09:28:17;1.75;;;1.65;;
68384;SDS011;55336;43.062;25.626;2022-09-03T09:30:47;2.22;;;2.08;;
68384;SDS011;55336;43.062;25.626;2022-09-03T09:33:16;2.85;;;2.17;;
68384;SDS011;55336;43.062;25.626;2022-09-03T09:35:42;1.38;;;1.27;;
68384;SDS011;55336;43.062;25.626;2022-09-03T09:38:10;1.85;;;1.75;;
68384;SDS011;55336;43.062;25.626;2022-09-03T09:40:38;2.00;;;1.90;;
68384;SDS011;55336;43.062;25.626;2022-09-03T09:43:06;2.38;;;2.17;;
68384;SDS011;55336;43.062;25.626;2022-09-03T09:45:35;2.28;;;1.92;;
68384;SDS011;55336;43.062;25.626;2022-09-03T09:48:09;1.35;;;1.33;;
68384;SDS011;55336;43.062;25.626;2022-09-03T09:51:09;1.95;;;1.85;;
68384;SDS011;55336;43.062;25.626;2022-09-03T09:53:37;1.48;;;1.38;;
68384;SDS011;55336;43.062;25.626;2022-09-03T09:56:06;2.22;;;1.83;;
68384;SDS011;55336;43.062;25.626;2022-09-03T09:58:33;1.65;;;1.55;;
68384;SDS011;55336;43.062;25.626;2022-09-03T10:03:38;2.35;;;1.73;;
68384;SDS011;55336;43.062;25.626;2022-09-03T10:06:21;1.73;;;1.63;;
68384;SDS011;55336;43.062;25.626;2022-09-03T10:11:40;1.63;;;1.52;;
68384;SDS011;55336;43.062;25.626;2022-09-03T10:14:12;2.80;;;2.17;;
68384;SDS011;55336;43.062;25.626;2022-09-03T10:17:15;1.90;;;1.80;;
68384;SDS011;55336;43.062;25.626;2022-09-03T10:28:25;3.85;;;2.25;;
68384;SDS011;55336;43.062;25.626;2022-09-03T10:31:08;1.83;;;1.73;;
68384;SDS011;55336;43.062;25.626;2022-09-03T10:37:08;2.22;;;2.03;;
68384;SDS011;55336;43.062;25.626;2022-09-03T10:40:03;2.67;;;2.47;;
68384;SDS011;55336;43.062;25.626;2022-09-03T10:46:09;3.28;;;2.17;;
68384;SDS011;55336;43.062;25.626;2022-09-03T10:51:27;2.25;;;2.08;;
68384;SDS011;55336;43.062;25.626;2022-09-03T11:05:36;2.60;;;2.40;;
68384;SDS011;55336;43.062;25.626;2022-09-03T11:08:16;1.48;;;1.48;;
68384;SDS011;55336;43.062;25.626;2022-09-03T11:10:51;3.08;;;2.88;;
68384;SDS011;55336;43.062;25.626;2022-09-03T11:13:32;2.30;;;2.10;;
68384;SDS011;55336;43.062;25.626;2022-09-03T11:16:07;3.13;;;2.70;;
68384;SDS011;55336;43.062;25.626;2022-09-03T11:18:42;2.90;;;2.70;;
68384;SDS011;55336;43.062;25.626;2022-09-03T11:21:13;1.63;;;1.52;;
68384;SDS011;55336;43.062;25.626;2022-09-03T11:23:43;3.30;;;2.45;;
68384;SDS011;55336;43.062;25.626;2022-09-03T11:26:12;2.40;;;2.30;;
68384;SDS011;55336;43.062;25.626;2022-09-03T11:28:56;2.22;;;2.13;;
68384;SDS011;55336;43.062;25.626;2022-09-03T11:34:26;2.78;;;2.35;;
68384;SDS011;55336;43.062;25.626;2022-09-03T11:40:09;3.17;;;2.97;;
68384;SDS011;55336;43.062;25.626;2022-09-03T11:42:40;3.03;;;2.78;;
68384;SDS011;55336;43.062;25.626;2022-09-03T11:47:52;2.95;;;2.75;;
68384;SDS011;55336;43.062;25.626;2022-09-03T11:50:23;3.20;;;2.83;;
68384;SDS011;55336;43.062;25.626;2022-09-03T11:55:59;2.97;;;2.70;;
68384;SDS011;55336;43.062;25.626;2022-09-03T11:58:37;3.57;;;3.27;;
68384;SDS011;55336;43.062;25.626;2022-09-03T12:01:11;3.38;;;3.03;;
68384;SDS011;55336;43.062;25.626;2022-09-03T12:03:50;2.42;;;2.33;;
68384;SDS011;55336;43.062;25.626;2022-09-03T12:19:57;4.68;;;3.97;;
68384;SDS011;55336;43.062;25.626;2022-09-03T12:22:25;4.00;;;3.58;;
68384;SDS011;55336;43.062;25.626;2022-09-03T12:25:06;3.42;;;3.13;;
68384;SDS011;55336;43.062;25.626;2022-09-03T12:27:34;2.83;;;2.60;;
68384;SDS011;55336;43.062;25.626;2022-09-03T12:32:29;7.05;;;4.50;;
68384;SDS011;55336;43.062;25.626;2022-09-03T12:37:37;3.20;;;2.90;;
68384;SDS011;55336;43.062;25.626;2022-09-03T12:40:05;3.90;;;3.47;;
68384;SDS011;55336;43.062;25.626;2022-09-03T12:42:40;3.83;;;3.47;;
68384;SDS011;55336;43.062;25.626;2022-09-03T12:47:38;2.63;;;2.42;;
68384;SDS011;55336;43.062;25.626;2022-09-03T12:50:06;2.63;;;2.42;;
68384;SDS011;55336;43.062;25.626;2022-09-03T13:00:28;2.45;;;2.25;;
68384;SDS011;55336;43.062;25.626;2022-09-03T13:03:05;2.97;;;2.72;;
68384;SDS011;55336;43.062;25.626;2022-09-03T13:08:28;4.10;;;3.10;;
68384;SDS011;55336;43.062;25.626;2022-09-03T13:10:57;2.97;;;2.78;;
68384;SDS011;55336;43.062;25.626;2022-09-03T13:13:30;2.80;;;2.60;;
68384;SDS011;55336;43.062;25.626;2022-09-03T13:21:17;2.70;;;2.50;;
68384;SDS011;55336;43.062;25.626;2022-09-03T13:24:03;2.92;;;2.63;;
68384;SDS011;55336;43.062;25.626;2022-09-03T13:43:50;2.47;;;2.28;;
68384;SDS011;55336;43.062;25.626;2022-09-03T13:46:31;2.20;;;2.00;;
68384;SDS011;55336;43.062;25.626;2022-09-03T13:52:30;2.15;;;2.05;;
68384;SDS011;55336;43.062;25.626;2022-09-03T13:57:52;2.08;;;1.98;;
68384;SDS011;55336;43.062;25.626;2022-09-03T14:00:48;2.30;;;2.17;;
68384;SDS011;55336;43.062;25.626;2022-09-03T14:03:32;4.40;;;3.75;;
68384;SDS011;55336;43.062;25.626;2022-09-03T14:25:20;2.72;;;2.50;;
68384;SDS011;55336;43.062;25.626;2022-09-03T14:27:48;2.70;;;2.50;;
68384;SDS011;55336;43.062;25.626;2022-09-03T14:35:48;1.90;;;1.80;;
68384;SDS011;55336;43.062;25.626;2022-09-03T14:38:50;2.03;;;1.92;;
68384;SDS011;55336;43.062;25.626;2022-09-03T14:41:31;2.58;;;1.38;;
68384;SDS011;55336;43.062;25.626;2022-09-03T14:44:19;2.20;;;2.05;;
68384;SDS011;55336;43.062;25.626;2022-09-03T14:47:14;1.70;;;1.60;;
68384;SDS011;55336;43.062;25.626;2022-09-03T14:49:52;2.10;;;1.92;;
68384;SDS011;55336;43.062;25.626;2022-09-03T14:55:48;2.42;;;1.90;;
68384;SDS011;55336;43.062;25.626;2022-09-03T15:01:18;2.20;;;2.00;;
68384;SDS011;55336;43.062;25.626;2022-09-03T15:06:54;2.03;;;1.83;;
68384;SDS011;55336;43.062;25.626;2022-09-03T15:09:44;2.25;;;2.15;;
68384;SDS011;55336;43.062;25.626;2022-09-03T15:14:52;2.42;;;2.22;;
68384;SDS011;55336;43.062;25.626;2022-09-03T15:34:20;2.55;;;2.45;;
68384;SDS011;55336;43.062;25.626;2022-09-03T15:36:57;2.58;;;2.30;;
68384;SDS011;55336;43.062;25.626;2022-09-03T15:39:37;3.10;;;2.80;;
68384;SDS011;55336;43.062;25.626;2022-09-03T15:42:19;3.60;;;3.33;;
68384;SDS011;55336;43.062;25.626;2022-09-03T15:44:55;3.75;;;3.40;;
68384;SDS011;55336;43.062;25.626;2022-09-03T15:47:39;4.22;;;3.40;;
68384;SDS011;55336;43.062;25.626;2022-09-03T15:55:11;4.22;;;3.83;;
68384;SDS011;55336;43.062;25.626;2022-09-03T16:00:37;4.30;;;3.97;;
68384;SDS011;55336;43.062;25.626;2022-09-03T16:03:16;3.33;;;3.13;;
68384;SDS011;55336;43.062;25.626;2022-09-03T16:05:56;11.93;;;4.18;;
68384;SDS011;55336;43.062;25.626;2022-09-03T16:08:40;4.50;;;4.10;;
68384;SDS011;55336;43.062;25.626;2022-09-03T16:17:01;4.35;;;3.70;;
68384;SDS011;55336;43.062;25.626;2022-09-03T16:24:53;4.32;;;3.95;;
68384;SDS011;55336;43.062;25.626;2022-09-03T16:27:31;4.35;;;4.03;;
68384;SDS011;55336;43.062;25.626;2022-09-03T16:41:12;6.03;;;4.10;;
68384;SDS011;55336;43.062;25.626;2022-09-03T16:50:09;4.45;;;3.67;;
68384;SDS011;55336;43.062;25.626;2022-09-03T16:55:24;4.25;;;3.85;;
68384;SDS011;55336;43.062;25.626;2022-09-03T17:03:39;4.80;;;4.22;;
68384;SDS011;55336;43.062;25.626;2022-09-03T17:11:36;5.15;;;3.75;;
68384;SDS011;55336;43.062;25.626;2022-09-03T17:20:17;4.35;;;3.95;;
68384;SDS011;55336;43.062;25.626;2022-09-03T17:23:06;3.72;;;3.42;;
68384;SDS011;55336;43.062;25.626;2022-09-03T17:25:37;5.25;;;3.83;;
68384;SDS011;55336;43.062;25.626;2022-09-03T17:28:08;4.30;;;3.47;;
68384;SDS011;55336;43.062;25.626;2022-09-03T17:30:56;3.65;;;3.35;;
68384;SDS011;55336;43.062;25.626;2022-09-03T17:34:01;4.07;;;3.78;;
68384;SDS011;55336;43.062;25.626;2022-09-03T17:36:37;4.72;;;4.07;;
68384;SDS011;55336;43.062;25.626;2022-09-03T17:48:27;4.13;;;3.80;;
68384;SDS011;55336;43.062;25.626;2022-09-03T17:51:03;4.47;;;4.07;;
68384;SDS011;55336;43.062;25.626;2022-09-03T17:53:43;4.10;;;3.60;;
68384;SDS011;55336;43.062;25.626;2022-09-03T17:59:02;5.22;;;4.70;;
68384;SDS011;55336;43.062;25.626;2022-09-03T18:01:37;3.67;;;3.38;;
68384;SDS011;55336;43.062;25.626;2022-09-03T18:07:15;4.97;;;3.75;;
68384;SDS011;55336;43.062;25.626;2022-09-03T18:12:48;3.58;;;3.28;;
68384;SDS011;55336;43.062;25.626;2022-09-03T18:15:46;3.85;;;3.53;;
68384;SDS011;55336;43.062;25.626;2022-09-03T18:18:32;3.58;;;3.25;;
68384;SDS011;55336;43.062;25.626;2022-09-03T18:21:04;4.25;;;3.85;;
68384;SDS011;55336;43.062;25.626;2022-09-03T18:27:00;4.03;;;3.70;;
68384;SDS011;55336;43.062;25.626;2022-09-03T18:30:00;4.20;;;3.60;;
68384;SDS011;55336;43.062;25.626;2022-09-03T18:32:53;3.67;;;3.38;;
68384;SDS011;55336;43.062;25.626;2022-09-03T18:35:39;5.15;;;4.10;;
68384;SDS011;55336;43.062;25.626;2022-09-03T18:38:28;4.93;;;3.25;;
68384;SDS011;55336;43.062;25.626;2022-09-03T18:44:09;4.60;;;4.05;;
68384;SDS011;55336;43.062;25.626;2022-09-03T18:53:13;7.15;;;4.28;;
68384;SDS011;55336;43.062;25.626;2022-09-03T18:59:09;4.50;;;4.10;;
68384;SDS011;55336;43.062;25.626;2022-09-03T19:02:00;4.00;;;3.70;;
68384;SDS011;55336;43.062;25.626;2022-09-03T19:04:59;3.25;;;2.95;;
68384;SDS011;55336;43.062;25.626;2022-09-03T19:08:00;3.97;;;3.58;;
68384;SDS011;55336;43.062;25.626;2022-09-03T19:13:51;3.88;;;3.45;;
68384;SDS011;55336;43.062;25.626;2022-09-03T19:22:26;3.58;;;3.28;;
68384;SDS011;55336;43.062;25.626;2022-09-03T19:25:14;4.78;;;3.88;;
68384;SDS011;55336;43.062;25.626;2022-09-03T19:43:58;3.65;;;3.35;;
68384;SDS011;55336;43.062;25.626;2022-09-03T19:47:02;4.28;;;3.88;;
68384;SDS011;55336;43.062;25.626;2022-09-03T19:50:09;4.18;;;3.83;;
68384;SDS011;55336;43.062;25.626;2022-09-03T19:53:07;4.30;;;3.90;;
68384;SDS011;55336;43.062;25.626;2022-09-03T19:55:55;3.45;;;3.15;;
68384;SDS011;55336;43.062;25.626;2022-09-03T19:58:45;4.30;;;3.90;;
68384;SDS011;55336;43.062;25.626;2022-09-03T20:04:28;3.70;;;3.35;;
68384;SDS011;55336;43.062;25.626;2022-09-03T20:07:15;4.18;;;3.75;;
68384;SDS011;55336;43.062;25.626;2022-09-03T20:10:03;5.55;;;5.05;;
68384;SDS011;55336;43.062;25.626;2022-09-03T20:20:54;3.45;;;3.25;;
68384;SDS011;55336;43.062;25.626;2022-09-03T20:32:43;5.60;;;3.55;;
68384;SDS011;55336;43.062;25.626;2022-09-03T20:41:01;3.75;;;3.45;;
68384;SDS011;55336;43.062;25.626;2022-09-03T20:49:04;5.03;;;3.55;;
68384;SDS011;55336;43.062;25.626;2022-09-03T20:51:48;4.07;;;3.65;;
68384;SDS011;55336;43.062;25.626;2022-09-03T21:00:40;3.53;;;3.22;;
68384;SDS011;55336;43.062;25.626;2022-09-03T21:03:50;3.85;;;3.55;;
68384;SDS011;55336;43.062;25.626;2022-09-03T21:12:10;4.00;;;3.63;;
68384;SDS011;55336;43.062;25.626;2022-09-03T21:17:23;4.28;;;3.58;;
68384;SDS011;55336;43.062;25.626;2022-09-03T21:25:43;3.90;;;3.60;;
68384;SDS011;55336;43.062;25.626;2022-09-03T21:28:38;4.28;;;3.83;;
68384;SDS011;55336;43.062;25.626;2022-09-03T21:31:14;4.05;;;3.75;;
68384;SDS011;55336;43.062;25.626;2022-09-03T21:36:16;4.28;;;3.88;;
68384;SDS011;55336;43.062;25.626;2022-09-03T21:38:52;3.85;;;3.55;;
68384;SDS011;55336;43.062;25.626;2022-09-03T21:41:52;4.35;;;3.95;;
68384;SDS011;55336;43.062;25.626;2022-09-03T21:47:06;3.50;;;3.28;;
68384;SDS011;55336;43.062;25.626;2022-09-03T21:52:43;4.28;;;3.45;;
68384;SDS011;55336;43.062;25.626;2022-09-03T21:57:51;5.30;;;3.60;;
68384;SDS011;55336;43.062;25.626;2022-09-03T22:00:35;3.95;;;3.65;;
68384;SDS011;55336;43.062;25.626;2022-09-03T22:03:02;4.15;;;3.75;;
68384;SDS011;55336;43.062;25.626;2022-09-03T22:05:38;3.50;;;3.20;;
68384;SDS011;55336;43.062;25.626;2022-09-03T22:11:15;3.83;;;3.53;;
68384;SDS011;55336;43.062;25.626;2022-09-03T22:14:08;5.40;;;3.40;;
68384;SDS011;55336;43.062;25.626;2022-09-03T22:19:04;4.07;;;3.67;;
68384;SDS011;55336;43.062;25.626;2022-09-03T22:24:36;3.90;;;3.60;;
68384;SDS011;55336;43.062;25.626;2022-09-03T22:30:04;4.53;;;4.13;;
68384;SDS011;55336;43.062;25.626;2022-09-03T22:32:52;3.78;;;3.47;;
68384;SDS011;55336;43.062;25.626;2022-09-03T22:41:10;4.97;;;3.60;;
68384;SDS011;55336;43.062;25.626;2022-09-03T22:43:37;3.65;;;3.35;;
68384;SDS011;55336;43.062;25.626;2022-09-03T22:51:11;4.05;;;3.60;;
68384;SDS011;55336;43.062;25.626;2022-09-03T22:56:16;4.00;;;3.70;;
68384;SDS011;55336;43.062;25.626;2022-09-03T22:58:57;4.25;;;3.88;;
68384;SDS011;55336;43.062;25.626;2022-09-03T23:04:06;5.63;;;4.10;;
68384;SDS011;55336;43.062;25.626;2022-09-03T23:06:48;3.83;;;3.53;;
68384;SDS011;55336;43.062;25.626;2022-09-03T23:09:23;3.85;;;3.53;;
68384;SDS011;55336;43.062;25.626;2022-09-03T23:11:55;6.53;;;3.70;;
68384;SDS011;55336;43.062;25.626;2022-09-03T23:14:32;4.40;;;4.00;;
68384;SDS011;55336;43.062;25.626;2022-09-03T23:17:07;4.95;;;4.35;;
68384;SDS011;55336;43.062;25.626;2022-09-03T23:19:41;4.10;;;3.78;;
68384;SDS011;55336;43.062;25.626;2022-09-03T23:25:31;3.83;;;3.53;;
68384;SDS011;55336;43.062;25.626;2022-09-03T23:28:13;4.22;;;3.92;;
68384;SDS011;55336;43.062;25.626;2022-09-03T23:33:14;3.83;;;3.42;;
68384;SDS011;55336;43.062;25.626;2022-09-03T23:35:46;5.90;;;4.35;;